This is the latest recevied weather packets stored in our database for station/object K1LVA. If no packets are shown the sender has not sent any weather packets the latest 10 day(s).
| Time | Temp. | Humidity | Pressure | Rain* | Wind** | Luminosity | Snow |
|---|---|---|---|---|---|---|---|
| 1778261622 | 22.22° C | 52% | 1016.5 hPa | 0 mm | - | 709 W/m² | - |
| 1778261318 | 22.22° C | 48% | 1016.5 hPa | 0 mm | - | 698 W/m² | - |
| 1778261015 | 22.22° C | 49% | 1016.8 hPa | 0 mm | - | 455 W/m² | - |
| 1778260712 | 22.22° C | 52% | 1016.8 hPa | 0 mm | - | 674 W/m² | - |
| 1778260408 | 21.67° C | 52% | 1016.9 hPa | 0 mm | - | 557 W/m² | - |
| 1778260105 | 21.67° C | 49% | 1016.9 hPa | 0 mm | - | 884 W/m² | - |
| 1778259803 | 22.22° C | 50% | 1016.9 hPa | 0 mm | - | 834 W/m² | - |
| 1778259499 | 22.22° C | 49% | 1017 hPa | 0 mm | - | 794 W/m² | - |
| 1778259197 | 22.22° C | 52% | 1017.1 hPa | 0 mm | - | 805 W/m² | - |
| 1778258892 | 22.22° C | 49% | 1017.3 hPa | 0 mm | - | 678 W/m² | - |
| 1778258589 | 22.78° C | 48% | 1017.3 hPa | 0 mm | - | 795 W/m² | - |
| 1778258288 | 22.22° C | 49% | 1017.2 hPa | 0 mm | - | 815 W/m² | - |
| 1778257985 | 22.22° C | 48% | 1017.3 hPa | 0 mm | - | 477 W/m² | - |
| 1778257680 | 22.22° C | 47% | 1017.6 hPa | 0 mm | - | 353 W/m² | - |
| 1778257377 | 21.67° C | 50% | 1017.3 hPa | 0 mm | - | 584 W/m² | - |
| 1778257074 | 21.67° C | 52% | 1017.5 hPa | 0 mm | - | 592 W/m² | - |
| 1778256771 | 21.11° C | 51% | 1017.4 hPa | 0 mm | - | 511 W/m² | - |
| 1778256469 | 20.56° C | 54% | 1017.4 hPa | 0 mm | - | 571 W/m² | - |
| 1778256168 | 21.11° C | 52% | 1017.6 hPa | 0 mm | - | 422 W/m² | - |
| 1778255864 | 21.11° C | 52% | 1017.5 hPa | 0 mm | - | 521 W/m² | - |
| 1778255561 | 21.11° C | 52% | 1017.6 hPa | 0 mm | - | 424 W/m² | - |
| 1778255257 | 21.11° C | 52% | 1017.8 hPa | 0 mm | - | 504 W/m² | - |
| 1778254955 | 21.11° C | 50% | 1017.7 hPa | 0 mm | - | 567 W/m² | - |
| 1778254651 | 21.67° C | 49% | 1017.8 hPa | 0 mm | - | 468 W/m² | - |
| 1778254349 | 20.56° C | 50% | 1017.9 hPa | 0 mm | - | 554 W/m² | - |
* Rain latest hour (hover to see other rain measurements)
** Current wind speed in m/s (hover to see current wind gust speed)